sensor_id;sensor_type;location;lat;lon;timestamp;temperature;humidity
45315;SHT31;31051;51.540;5.852;2023-05-07T00:05:29;14.5;86.2
45315;SHT31;31051;51.540;5.852;2023-05-07T00:18:28;14.4;86.6
45315;SHT31;31051;51.540;5.852;2023-05-07T00:31:28;14.4;86.5
45315;SHT31;31051;51.540;5.852;2023-05-07T00:44:27;14.4;86.5
45315;SHT31;31051;51.540;5.852;2023-05-07T00:57:27;14.3;86.8
45315;SHT31;31051;51.540;5.852;2023-05-07T01:10:26;14.3;86.6
45315;SHT31;31051;51.540;5.852;2023-05-07T01:23:25;14.2;86.9
45315;SHT31;31051;51.540;5.852;2023-05-07T01:36:25;14.1;87.5
45315;SHT31;31051;51.540;5.852;2023-05-07T01:49:24;14.2;87.9
45315;SHT31;31051;51.540;5.852;2023-05-07T02:02:22;14.1;87.7
45315;SHT31;31051;51.540;5.852;2023-05-07T02:15:12;14.2;87.8
45315;SHT31;31051;51.540;5.852;2023-05-07T02:28:11;14.3;87.3
45315;SHT31;31051;51.540;5.852;2023-05-07T02:41:10;14.2;87.2
45315;SHT31;31051;51.540;5.852;2023-05-07T02:54:10;14.2;86.8
45315;SHT31;31051;51.540;5.852;2023-05-07T03:07:09;14.2;86.8
45315;SHT31;31051;51.540;5.852;2023-05-07T03:20:09;14.2;86.9
45315;SHT31;31051;51.540;5.852;2023-05-07T03:33:08;14.0;87.3
45315;SHT31;31051;51.540;5.852;2023-05-07T03:46:07;14.1;87.5
45315;SHT31;31051;51.540;5.852;2023-05-07T03:59:07;14.1;87.9
45315;SHT31;31051;51.540;5.852;2023-05-07T04:12:06;14.1;88.1
45315;SHT31;31051;51.540;5.852;2023-05-07T04:25:05;14.2;87.9
45315;SHT31;31051;51.540;5.852;2023-05-07T04:38:05;14.3;88.0
45315;SHT31;31051;51.540;5.852;2023-05-07T04:51:04;14.4;88.2
45315;SHT31;31051;51.540;5.852;2023-05-07T05:04:03;14.5;88.6
45315;SHT31;31051;51.540;5.852;2023-05-07T05:16:52;14.6;88.9
45315;SHT31;31051;51.540;5.852;2023-05-07T05:29:51;14.9;88.8
45315;SHT31;31051;51.540;5.852;2023-05-07T05:42:51;15.1;88.3
45315;SHT31;31051;51.540;5.852;2023-05-07T05:55:50;15.2;88.1
45315;SHT31;31051;51.540;5.852;2023-05-07T06:08:48;15.5;88.2
45315;SHT31;31051;51.540;5.852;2023-05-07T06:21:38;15.5;87.4
45315;SHT31;31051;51.540;5.852;2023-05-07T06:34:37;15.7;86.7
45315;SHT31;31051;51.540;5.852;2023-05-07T06:47:35;16.1;86.4
45315;SHT31;31051;51.540;5.852;2023-05-07T07:00:25;16.5;84.0
45315;SHT31;31051;51.540;5.852;2023-05-07T07:13:23;17.1;81.9
45315;SHT31;31051;51.540;5.852;2023-05-07T07:26:12;17.3;80.3
45315;SHT31;31051;51.540;5.852;2023-05-07T07:39:11;17.9;78.4
45315;SHT31;31051;51.540;5.852;2023-05-07T07:52:00;18.4;77.8
45315;SHT31;31051;51.540;5.852;2023-05-07T08:04:59;18.6;76.5
45315;SHT31;31051;51.540;5.852;2023-05-07T08:17:47;19.0;76.4
45315;SHT31;31051;51.540;5.852;2023-05-07T08:30:35;19.3;74.5
45315;SHT31;31051;51.540;5.852;2023-05-07T08:43:24;19.9;71.5
45315;SHT31;31051;51.540;5.852;2023-05-07T08:56:13;20.5;68.3
45315;SHT31;31051;51.540;5.852;2023-05-07T09:09:11;21.0;66.6
45315;SHT31;31051;51.540;5.852;2023-05-07T09:22:01;21.6;66.7
45315;SHT31;31051;51.540;5.852;2023-05-07T09:34:59;22.0;63.6
45315;SHT31;31051;51.540;5.852;2023-05-07T09:47:48;21.9;64.0
45315;SHT31;31051;51.540;5.852;2023-05-07T10:00:37;21.6;66.0
45315;SHT31;31051;51.540;5.852;2023-05-07T10:13:36;23.3;61.3
45315;SHT31;31051;51.540;5.852;2023-05-07T10:26:24;23.4;58.6
45315;SHT31;31051;51.540;5.852;2023-05-07T10:39:11;23.6;58.3
45315;SHT31;31051;51.540;5.852;2023-05-07T10:52:00;23.1;58.8
45315;SHT31;31051;51.540;5.852;2023-05-07T11:04:59;22.6;57.7
45315;SHT31;31051;51.540;5.852;2023-05-07T11:17:57;22.8;57.0
45315;SHT31;31051;51.540;5.852;2023-05-07T11:30:44;23.7;56.3
45315;SHT31;31051;51.540;5.852;2023-05-07T11:43:32;23.7;56.3
45315;SHT31;31051;51.540;5.852;2023-05-07T11:56:19;23.8;53.9
45315;SHT31;31051;51.540;5.852;2023-05-07T12:09:06;23.6;55.5
45315;SHT31;31051;51.540;5.852;2023-05-07T12:21:54;23.7;56.1
45315;SHT31;31051;51.540;5.852;2023-05-07T12:34:42;23.3;56.4
45315;SHT31;31051;51.540;5.852;2023-05-07T12:47:40;22.6;52.7
45315;SHT31;31051;51.540;5.852;2023-05-07T13:00:28;22.1;54.5
45315;SHT31;31051;51.540;5.852;2023-05-07T13:13:16;22.2;53.7
45315;SHT31;31051;51.540;5.852;2023-05-07T13:26:05;21.6;55.9
45315;SHT31;31051;51.540;5.852;2023-05-07T13:38:53;19.2;67.1
45315;SHT31;31051;51.540;5.852;2023-05-07T13:51:41;17.1;75.1
45315;SHT31;31051;51.540;5.852;2023-05-07T14:04:30;15.9;82.6
45315;SHT31;31051;51.540;5.852;2023-05-07T14:17:19;15.0;84.1
45315;SHT31;31051;51.540;5.852;2023-05-07T14:30:18;14.9;85.7
45315;SHT31;31051;51.540;5.852;2023-05-07T14:43:18;14.8;83.9
45315;SHT31;31051;51.540;5.852;2023-05-07T14:56:17;15.1;83.9
45315;SHT31;31051;51.540;5.852;2023-05-07T15:09:17;15.4;85.0
45315;SHT31;31051;51.540;5.852;2023-05-07T15:22:15;16.0;84.9
45315;SHT31;31051;51.540;5.852;2023-05-07T15:35:03;16.2;81.1
45315;SHT31;31051;51.540;5.852;2023-05-07T15:47:51;16.5;82.6
45315;SHT31;31051;51.540;5.852;2023-05-07T16:00:40;16.9;81.3
45315;SHT31;31051;51.540;5.852;2023-05-07T16:13:29;17.1;80.7
45315;SHT31;31051;51.540;5.852;2023-05-07T16:26:28;17.2;79.8
45315;SHT31;31051;51.540;5.852;2023-05-07T16:39:28;17.3;80.8
45315;SHT31;31051;51.540;5.852;2023-05-07T16:52:26;17.3;81.2
45315;SHT31;31051;51.540;5.852;2023-05-07T17:05:15;17.3;81.7
45315;SHT31;31051;51.540;5.852;2023-05-07T17:18:03;17.3;79.9
45315;SHT31;31051;51.540;5.852;2023-05-07T17:30:52;17.4;80.5
45315;SHT31;31051;51.540;5.852;2023-05-07T17:43:51;17.2;81.2
45315;SHT31;31051;51.540;5.852;2023-05-07T17:56:39;16.8;82.5
45315;SHT31;31051;51.540;5.852;2023-05-07T18:09:28;16.6;83.4
45315;SHT31;31051;51.540;5.852;2023-05-07T18:22:28;16.5;83.6
45315;SHT31;31051;51.540;5.852;2023-05-07T18:35:27;16.5;83.3
45315;SHT31;31051;51.540;5.852;2023-05-07T18:48:25;16.4;83.2
45315;SHT31;31051;51.540;5.852;2023-05-07T19:01:15;16.2;83.4
45315;SHT31;31051;51.540;5.852;2023-05-07T19:14:14;16.1;83.4
45315;SHT31;31051;51.540;5.852;2023-05-07T19:27:14;16.1;84.0
45315;SHT31;31051;51.540;5.852;2023-05-07T19:40:13;16.1;84.2
45315;SHT31;31051;51.540;5.852;2023-05-07T19:53:11;15.9;85.0
45315;SHT31;31051;51.540;5.852;2023-05-07T20:06:01;15.8;85.7
45315;SHT31;31051;51.540;5.852;2023-05-07T20:19:00;15.7;86.2
45315;SHT31;31051;51.540;5.852;2023-05-07T20:31:59;15.7;86.3
45315;SHT31;31051;51.540;5.852;2023-05-07T20:44:59;15.6;86.4
45315;SHT31;31051;51.540;5.852;2023-05-07T20:57:58;15.4;87.0
45315;SHT31;31051;51.540;5.852;2023-05-07T21:10:58;15.4;87.0
45315;SHT31;31051;51.540;5.852;2023-05-07T21:23:57;15.4;87.5
45315;SHT31;31051;51.540;5.852;2023-05-07T21:36:56;15.4;87.2
45315;SHT31;31051;51.540;5.852;2023-05-07T21:49:56;15.4;87.0
45315;SHT31;31051;51.540;5.852;2023-05-07T22:02:55;15.4;87.0
45315;SHT31;31051;51.540;5.852;2023-05-07T22:15:55;15.1;88.2
45315;SHT31;31051;51.540;5.852;2023-05-07T22:28:54;15.2;88.4
45315;SHT31;31051;51.540;5.852;2023-05-07T22:41:53;15.4;88.0
45315;SHT31;31051;51.540;5.852;2023-05-07T22:54:52;15.4;87.9
45315;SHT31;31051;51.540;5.852;2023-05-07T23:07:41;15.4;87.3
45315;SHT31;31051;51.540;5.852;2023-05-07T23:20:40;15.4;87.2
45315;SHT31;31051;51.540;5.852;2023-05-07T23:33:40;15.3;87.7
45315;SHT31;31051;51.540;5.852;2023-05-07T23:46:39;15.4;87.4
45315;SHT31;31051;51.540;5.852;2023-05-07T23:59:38;15.4;87.4
